^^
Station Historical Data
Daily Summary for February 12, 2018 Units:  Both    English   Metric
« Previous Day
Next Day »
Daily Weekly Monthly Yearly Custom
  High: Low: Average:
Temperature: TemperatureF °F /  -17.8 °C 64.2 °F /  17.9 °C 71.2 °F /  21.8 °C
Dew Point: DewpointF °F /  -17.8 °C 54.5 °F /  12.5 °C 56.7 °F /  13.7 °C
Humidity: Humidity% 43% 60%
Wind Speed: WindSpeedMPHmph /  0km/h - -4.9mph /  -7.9km/h
Wind Gust: WindSpeedGustMPHmph /  0km/h - -
Wind- -
Pressure: PressureIn in /  0 hPa 29.69 in /  1005.3 hPa -
Precipitation: 0.07 in /  1.78 mm    
Historical Graphs
 
 
Tabular Data for February 12, 2018
Time Temperature Dew Point Pressure Wind Wind Speed Wind Gust Humidity Rainfall Rate (Hourly) solar Conditions
TemperatureF °F /  -17.8 °C DewpointF °F /  -17.8 °C PressureInin /  0hPa Calm     Humidity% HourlyPrecipInin /  0mm SoftwareType W/m2 Conditions
08:38 64.2 °F /  17.9 °C 56.1 °F /  13.4 °C 29.81in /  1009.4hPa NE 8.1mph /  13km/h 11.0mph /  17.7km/h 75% 0.00in /  0mm meteobridge W/m2
08:44 64.6 °F /  18.1 °C 55.8 °F /  13.2 °C 29.81in /  1009.4hPa NE 6.0mph /  9.7km/h 10.0mph /  16.1km/h 73% 0.00in /  0mm meteobridge W/m2
08:50 64.4 °F /  18 °C 55.6 °F /  13.1 °C 29.80in /  1009hPa NNE 6.0mph /  9.7km/h 9.0mph /  14.5km/h 73% 0.00in /  0mm meteobridge W/m2
08:56 64.9 °F /  18.3 °C 56.1 °F /  13.4 °C 29.80in /  1009hPa ENE 4.0mph /  6.4km/h 11.0mph /  17.7km/h 73% 0.00in /  0mm meteobridge W/m2
09:02 65.5 °F /  18.6 °C 56.3 °F /  13.5 °C 29.81in /  1009.4hPa NE 6.0mph /  9.7km/h 13.0mph /  20.9km/h 72% 0.00in /  0mm meteobridge W/m2
09:08 66.0 °F /  18.9 °C 56.7 °F /  13.7 °C 29.80in /  1009hPa NE 4.9mph /  7.9km/h 16.0mph /  25.7km/h 72% 0.00in /  0mm meteobridge W/m2
09:14 66.0 °F /  18.9 °C 56.3 °F /  13.5 °C 29.81in /  1009.4hPa NNE 12.1mph /  19.5km/h 13.0mph /  20.9km/h 71% 0.00in /  0mm meteobridge W/m2
09:20 66.2 °F /  19 °C 56.8 °F /  13.8 °C 29.81in /  1009.4hPa NE 6.9mph /  11.1km/h 13.0mph /  20.9km/h 72% 0.00in /  0mm meteobridge W/m2
09:26 66.4 °F /  19.1 °C 56.7 °F /  13.7 °C 29.81in /  1009.4hPa NE 8.9mph /  14.3km/h 14.0mph /  22.5km/h 71% 0.00in /  0mm meteobridge W/m2
09:32 66.6 °F /  19.2 °C 56.8 °F /  13.8 °C 29.80in /  1009hPa NE 6.9mph /  11.1km/h 17.0mph /  27.4km/h 71% 0.00in /  0mm meteobridge W/m2
09:38 67.1 °F /  19.5 °C 57.0 °F /  13.9 °C 29.80in /  1009hPa ENE 6.0mph /  9.7km/h 13.0mph /  20.9km/h 70% 0.00in /  0mm meteobridge W/m2
09:44 67.1 °F /  19.5 °C 56.7 °F /  13.7 °C 29.80in /  1009hPa NE 4.9mph /  7.9km/h 14.0mph /  22.5km/h 69% 0.00in /  0mm meteobridge W/m2
09:50 67.3 °F /  19.6 °C 57.2 °F /  14 °C 29.80in /  1009hPa NE 4.9mph /  7.9km/h 12.0mph /  19.3km/h 70% 0.00in /  0mm meteobridge W/m2
09:56 67.8 °F /  19.9 °C 57.7 °F /  14.3 °C 29.80in /  1009hPa NE 6.9mph /  11.1km/h 13.0mph /  20.9km/h 70% 0.00in /  0mm meteobridge W/m2
10:03 68.0 °F /  20 °C 57.9 °F /  14.4 °C 29.80in /  1009hPa NE 4.9mph /  7.9km/h 11.0mph /  17.7km/h 70% 0.00in /  0mm meteobridge W/m2
10:09 68.5 °F /  20.3 °C 57.9 °F /  14.4 °C 29.80in /  1009hPa East 4.9mph /  7.9km/h 11.0mph /  17.7km/h 69% 0.00in /  0mm meteobridge W/m2
10:15 69.1 °F /  20.6 °C 58.1 °F /  14.5 °C 29.79in /  1008.7hPa NNE 4.0mph /  6.4km/h 9.0mph /  14.5km/h 68% 0.00in /  0mm meteobridge W/m2
10:21 69.4 °F /  20.8 °C 57.9 °F /  14.4 °C 29.80in /  1009hPa NE 6.9mph /  11.1km/h 10.0mph /  16.1km/h 67% 0.00in /  0mm meteobridge W/m2
10:27 70.3 °F /  21.3 °C 58.8 °F /  14.9 °C 29.80in /  1009hPa NNE 8.1mph /  13km/h 11.0mph /  17.7km/h 67% 0.00in /  0mm meteobridge W/m2
10:33 70.9 °F /  21.6 °C 58.5 °F /  14.7 °C 29.79in /  1008.7hPa NE 4.0mph /  6.4km/h 12.0mph /  19.3km/h 65% 0.00in /  0mm meteobridge W/m2
10:39 70.7 °F /  21.5 °C 57.9 °F /  14.4 °C 29.79in /  1008.7hPa NE 6.0mph /  9.7km/h 13.0mph /  20.9km/h 64% 0.00in /  0mm meteobridge W/m2
10:45 70.9 °F /  21.6 °C 58.5 °F /  14.7 °C 29.79in /  1008.7hPa NNE 6.9mph /  11.1km/h 11.0mph /  17.7km/h 65% 0.00in /  0mm meteobridge W/m2
10:52 71.2 °F /  21.8 °C 57.6 °F /  14.2 °C 29.79in /  1008.7hPa NE 4.9mph /  7.9km/h 11.0mph /  17.7km/h 62% 0.00in /  0mm meteobridge W/m2
10:58 72.1 °F /  22.3 °C 58.5 °F /  14.7 °C 29.79in /  1008.7hPa NNE 6.9mph /  11.1km/h 15.0mph /  24.1km/h 62% 0.00in /  0mm meteobridge W/m2
11:04 72.3 °F /  22.4 °C 58.6 °F /  14.8 °C 29.79in /  1008.7hPa NNE 10.1mph /  16.3km/h 12.0mph /  19.3km/h 62% 0.00in /  0mm meteobridge W/m2
11:10 72.3 °F /  22.4 °C 58.6 °F /  14.8 °C 29.78in /  1008.4hPa NNE 6.0mph /  9.7km/h 12.0mph /  19.3km/h 62% 0.00in /  0mm meteobridge W/m2
11:16 72.9 °F /  22.7 °C 58.1 °F /  14.5 °C 29.78in /  1008.4hPa ENE 4.0mph /  6.4km/h 10.0mph /  16.1km/h 60% 0.00in /  0mm meteobridge W/m2
11:22 73.9 °F /  23.3 °C 58.6 °F /  14.8 °C 29.78in /  1008.4hPa NE 2.9mph /  4.7km/h 11.0mph /  17.7km/h 59% 0.00in /  0mm meteobridge W/m2
11:28 74.5 °F /  23.6 °C 57.7 °F /  14.3 °C 29.78in /  1008.4hPa NE 4.9mph /  7.9km/h 10.0mph /  16.1km/h 56% 0.00in /  0mm meteobridge W/m2
11:34 74.8 °F /  23.8 °C 57.6 °F /  14.2 °C 29.78in /  1008.4hPa East 4.9mph /  7.9km/h 10.0mph /  16.1km/h 55% 0.00in /  0mm meteobridge W/m2
11:40 74.1 °F /  23.4 °C 56.8 °F /  13.8 °C 29.78in /  1008.4hPa NNE 10.1mph /  16.3km/h 17.0mph /  27.4km/h 55% 0.00in /  0mm meteobridge W/m2
11:47 73.4 °F /  23 °C 57.2 °F /  14 °C 29.78in /  1008.4hPa NE 2.9mph /  4.7km/h 14.0mph /  22.5km/h 57% 0.00in /  0mm meteobridge W/m2
11:53 73.8 °F /  23.2 °C 57.6 °F /  14.2 °C 29.78in /  1008.4hPa NE 2.9mph /  4.7km/h 11.0mph /  17.7km/h 57% 0.00in /  0mm meteobridge W/m2
11:59 72.7 °F /  22.6 °C 57.0 °F /  13.9 °C 29.78in /  1008.4hPa ENE 4.0mph /  6.4km/h 11.0mph /  17.7km/h 58% 0.00in /  0mm meteobridge W/m2
12:05 72.1 °F /  22.3 °C 56.5 °F /  13.6 °C 29.78in /  1008.4hPa ENE 2.0mph /  3.2km/h 12.0mph /  19.3km/h 58% 0.00in /  0mm meteobridge W/m2
12:11 72.1 °F /  22.3 °C 57.6 °F /  14.2 °C 29.77in /  1008hPa Calm   7.0mph /  11.3km/h 60% 0.00in /  0mm meteobridge W/m2
12:17 72.3 °F /  22.4 °C 57.7 °F /  14.3 °C 29.77in /  1008hPa East 2.9mph /  4.7km/h 4.0mph /  6.4km/h 60% 0.00in /  0mm meteobridge W/m2
12:24 73.0 °F /  22.8 °C 57.9 °F /  14.4 °C 29.77in /  1008hPa NNE 2.0mph /  3.2km/h 10.0mph /  16.1km/h 59% 0.00in /  0mm meteobridge W/m2
12:30 73.0 °F /  22.8 °C 56.8 °F /  13.8 °C 29.77in /  1008hPa WSW 2.0mph /  3.2km/h 13.0mph /  20.9km/h 57% 0.00in /  0mm meteobridge W/m2
12:36 73.2 °F /  22.9 °C 57.0 °F /  13.9 °C 29.77in /  1008hPa NE 4.0mph /  6.4km/h 12.0mph /  19.3km/h 57% 0.00in /  0mm meteobridge W/m2
12:42 75.0 °F /  23.9 °C 58.3 °F /  14.6 °C 29.77in /  1008hPa East 2.0mph /  3.2km/h 7.0mph /  11.3km/h 56% 0.00in /  0mm meteobridge W/m2
12:48 75.9 °F /  24.4 °C 57.6 °F /  14.2 °C 29.77in /  1008hPa East 4.0mph /  6.4km/h 5.0mph /  8km/h 53% 0.00in /  0mm meteobridge W/m2
12:54 75.2 °F /  24 °C 56.8 °F /  13.8 °C 29.77in /  1008hPa NNE 8.9mph /  14.3km/h 9.0mph /  14.5km/h 53% 0.00in /  0mm meteobridge W/m2
13:00 75.4 °F /  24.1 °C 55.9 °F /  13.3 °C 29.76in /  1007.7hPa NNE 8.9mph /  14.3km/h 11.0mph /  17.7km/h 51% 0.00in /  0mm meteobridge W/m2
13:07 74.8 °F /  23.8 °C 56.1 °F /  13.4 °C 29.76in /  1007.7hPa East 6.9mph /  11.1km/h 7.0mph /  11.3km/h 52% 0.00in /  0mm meteobridge W/m2
13:13 75.6 °F /  24.2 °C 56.7 °F /  13.7 °C 29.75in /  1007.3hPa SSE 2.0mph /  3.2km/h 7.0mph /  11.3km/h 52% 0.00in /  0mm meteobridge W/m2
13:19 75.2 °F /  24 °C 56.3 °F /  13.5 °C 29.76in /  1007.7hPa NE 4.9mph /  7.9km/h 6.0mph /  9.7km/h 52% 0.00in /  0mm meteobridge W/m2
13:25 74.7 °F /  23.7 °C 56.5 °F /  13.6 °C 29.75in /  1007.3hPa East 2.9mph /  4.7km/h 7.0mph /  11.3km/h 53% 0.00in /  0mm meteobridge W/m2
13:31 74.8 °F /  23.8 °C 57.0 °F /  13.9 °C 29.75in /  1007.3hPa East 2.9mph /  4.7km/h 8.0mph /  12.9km/h 54% 0.00in /  0mm meteobridge W/m2
13:37 75.2 °F /  24 °C 55.8 °F /  13.2 °C 29.75in /  1007.3hPa NE 2.0mph /  3.2km/h 10.0mph /  16.1km/h 51% 0.00in /  0mm meteobridge W/m2
13:43 74.8 °F /  23.8 °C 56.1 °F /  13.4 °C 29.74in /  1007hPa ENE 4.0mph /  6.4km/h 11.0mph /  17.7km/h 52% 0.00in /  0mm meteobridge W/m2
13:49 75.6 °F /  24.2 °C 56.1 °F /  13.4 °C 29.74in /  1007hPa NE 10.1mph /  16.3km/h 17.0mph /  27.4km/h 51% 0.00in /  0mm meteobridge W/m2
13:55 74.3 °F /  23.5 °C 56.1 °F /  13.4 °C 29.74in /  1007hPa North 10.1mph /  16.3km/h 22.0mph /  35.4km/h 53% 0.00in /  0mm meteobridge W/m2
14:02 73.8 °F /  23.2 °C 56.1 °F /  13.4 °C 29.75in /  1007.3hPa Calm   5.0mph /  8km/h 54% 0.00in /  0mm meteobridge W/m2
14:08 74.3 °F /  23.5 °C 56.7 °F /  13.7 °C 29.74in /  1007hPa SE 4.0mph /  6.4km/h 5.0mph /  8km/h 54% 0.00in /  0mm meteobridge W/m2
14:14 74.8 °F /  23.8 °C 56.1 °F /  13.4 °C 29.74in /  1007hPa SSE 2.9mph /  4.7km/h 10.0mph /  16.1km/h 52% 0.00in /  0mm meteobridge W/m2
14:20 74.7 °F /  23.7 °C 56.5 °F /  13.6 °C 29.74in /  1007hPa SE 4.9mph /  7.9km/h 7.0mph /  11.3km/h 53% 0.00in /  0mm meteobridge W/m2
14:26 75.6 °F /  24.2 °C 56.7 °F /  13.7 °C 29.73in /  1006.7hPa NNE 6.0mph /  9.7km/h 12.0mph /  19.3km/h 52% 0.00in /  0mm meteobridge W/m2
14:32 76.6 °F /  24.8 °C 56.7 °F /  13.7 °C 29.73in /  1006.7hPa NNW 4.0mph /  6.4km/h 14.0mph /  22.5km/h 50% 0.00in /  0mm meteobridge W/m2
14:38 75.9 °F /  24.4 °C 55.4 °F /  13 °C 29.73in /  1006.7hPa NNE 12.1mph /  19.5km/h 14.0mph /  22.5km/h 49% 0.00in /  0mm meteobridge W/m2
14:44 75.9 °F /  24.4 °C 55.9 °F /  13.3 °C 29.72in /  1006.3hPa North 6.9mph /  11.1km/h 9.0mph /  14.5km/h 50% 0.00in /  0mm meteobridge W/m2
14:51 75.9 °F /  24.4 °C 55.9 °F /  13.3 °C 29.73in /  1006.7hPa ESE 2.9mph /  4.7km/h 6.0mph /  9.7km/h 50% 0.00in /  0mm meteobridge W/m2
14:57 76.3 °F /  24.6 °C 56.8 °F /  13.8 °C 29.72in /  1006.3hPa ENE 4.0mph /  6.4km/h 7.0mph /  11.3km/h 51% 0.00in /  0mm meteobridge W/m2
15:03 76.8 °F /  24.9 °C 55.6 °F /  13.1 °C 29.72in /  1006.3hPa ENE 6.0mph /  9.7km/h 9.0mph /  14.5km/h 48% 0.00in /  0mm meteobridge W/m2
15:09 76.5 °F /  24.7 °C 55.4 °F /  13 °C 29.72in /  1006.3hPa NNE 14.1mph /  22.7km/h 23.0mph /  37km/h 48% 0.00in /  0mm meteobridge W/m2
15:15 76.1 °F /  24.5 °C 55.6 °F /  13.1 °C 29.72in /  1006.3hPa Calm   9.0mph /  14.5km/h 49% 0.00in /  0mm meteobridge W/m2
15:22 75.9 °F /  24.4 °C 55.4 °F /  13 °C 29.72in /  1006.3hPa East 6.9mph /  11.1km/h 7.0mph /  11.3km/h 49% 0.00in /  0mm meteobridge W/m2
15:28 77.5 °F /  25.3 °C 56.3 °F /  13.5 °C 29.71in /  1006hPa East 6.0mph /  9.7km/h 11.0mph /  17.7km/h 48% 0.00in /  0mm meteobridge W/m2
15:34 79.3 °F /  26.3 °C 56.8 °F /  13.8 °C 29.71in /  1006hPa NNE 0.9mph /  1.4km/h 11.0mph /  17.7km/h 46% 0.00in /  0mm meteobridge W/m2
15:40 79.2 °F /  26.2 °C 55.9 °F /  13.3 °C 29.70in /  1005.6hPa ESE 4.9mph /  7.9km/h 7.0mph /  11.3km/h 45% 0.00in /  0mm meteobridge W/m2
15:46 79.9 °F /  26.6 °C 55.4 °F /  13 °C 29.70in /  1005.6hPa NE 12.1mph /  19.5km/h 16.0mph /  25.7km/h 43% 0.00in /  0mm meteobridge W/m2
15:52 80.1 °F /  26.7 °C 55.6 °F /  13.1 °C 29.70in /  1005.6hPa South 11.0mph /  17.7km/h 15.0mph /  24.1km/h 43% 0.00in /  0mm meteobridge W/m2
15:58 78.6 °F /  25.9 °C 54.9 °F /  12.7 °C 29.70in /  1005.6hPa NE 4.0mph /  6.4km/h 12.0mph /  19.3km/h 44% 0.00in /  0mm meteobridge W/m2
16:04 77.7 °F /  25.4 °C 54.7 °F /  12.6 °C 29.69in /  1005.3hPa NE 4.0mph /  6.4km/h 7.0mph /  11.3km/h 45% 0.00in /  0mm meteobridge W/m2
16:10 77.7 °F /  25.4 °C 54.7 °F /  12.6 °C 29.70in /  1005.6hPa SE 16.1mph /  25.9km/h 17.0mph /  27.4km/h 45% 0.00in /  0mm meteobridge W/m2
16:17 77.0 °F /  25 °C 54.7 °F /  12.6 °C 29.69in /  1005.3hPa East 2.9mph /  4.7km/h 17.0mph /  27.4km/h 46% 0.00in /  0mm meteobridge W/m2
16:37 75.6 °F /  24.2 °C 55.0 °F /  12.8 °C 29.70in /  1005.6hPa SE 8.1mph /  13km/h 16.0mph /  25.7km/h 49% 0.00in /  0mm meteobridge W/m2
16:43 75.0 °F /  23.9 °C 54.5 °F /  12.5 °C 29.70in /  1005.6hPa ESE 6.9mph /  11.1km/h 12.0mph /  19.3km/h 49% 0.00in /  0mm meteobridge W/m2
16:49 75.0 °F /  23.9 °C 54.5 °F /  12.5 °C 29.70in /  1005.6hPa ENE 2.9mph /  4.7km/h 9.0mph /  14.5km/h 49% 0.00in /  0mm meteobridge W/m2
16:55 75.0 °F /  23.9 °C 55.6 °F /  13.1 °C 29.70in /  1005.6hPa ESE 2.9mph /  4.7km/h 7.0mph /  11.3km/h 51% 0.00in /  0mm meteobridge W/m2
17:01 75.0 °F /  23.9 °C 58.3 °F /  14.6 °C 29.70in /  1005.6hPa NE 4.0mph /  6.4km/h 5.0mph /  8km/h 56% 0.00in /  0mm meteobridge W/m2
17:08 73.8 °F /  23.2 °C 59.0 °F /  15 °C 29.70in /  1005.6hPa ENE 2.0mph /  3.2km/h 5.0mph /  8km/h 60% 0.01in /  0.25mm meteobridge W/m2
17:14 72.0 °F /  22.2 °C 59.5 °F /  15.3 °C 29.70in /  1005.6hPa Calm   4.0mph /  6.4km/h 65% 0.02in /  0.51mm meteobridge W/m2
17:20 70.3 °F /  21.3 °C 59.4 °F /  15.2 °C 29.69in /  1005.3hPa ESE 2.0mph /  3.2km/h 3.0mph /  4.8km/h 68% 0.02in /  0.51mm meteobridge W/m2
17:26 69.3 °F /  20.7 °C 58.6 °F /  14.8 °C 29.70in /  1005.6hPa SE 12.1mph /  19.5km/h 12.1mph /  19.5km/h 69% 0.02in /  0.51mm meteobridge W/m2
17:32 67.5 °F /  19.7 °C 57.4 °F /  14.1 °C 29.71in /  1006hPa South 2.9mph /  4.7km/h 12.0mph /  19.3km/h 70% 0.04in /  1.02mm meteobridge W/m2
17:38 65.8 °F /  18.8 °C 57.7 °F /  14.3 °C 29.71in /  1006hPa SE 2.0mph /  3.2km/h 6.0mph /  9.7km/h 75% 0.06in /  1.52mm meteobridge W/m2
17:44 65.3 °F /  18.5 °C 59.0 °F /  15 °C 29.70in /  1005.6hPa Calm   4.0mph /  6.4km/h 80% 0.06in /  1.52mm meteobridge W/m2
17:51 65.7 °F /  18.7 °C 59.7 °F /  15.4 °C 29.70in /  1005.6hPa ESE 2.0mph /  3.2km/h 5.0mph /  8km/h 81% 0.06in /  1.52mm meteobridge W/m2
17:57 66.0 °F /  18.9 °C 59.7 °F /  15.4 °C 29.70in /  1005.6hPa NW 2.0mph /  3.2km/h 7.0mph /  11.3km/h 80% 0.07in /  1.78mm meteobridge W/m2
18:03 66.6 °F /  19.2 °C 60.6 °F /  15.9 °C 29.70in /  1005.6hPa NW 2.0mph /  3.2km/h 2.0mph /  3.2km/h 81% 0.06in /  1.52mm meteobridge W/m2
18:09 66.6 °F /  19.2 °C 60.6 °F /  15.9 °C 29.70in /  1005.6hPa Calm   3.0mph /  4.8km/h 81% 0.05in /  1.27mm meteobridge W/m2
18:15 66.6 °F /  19.2 °C 60.6 °F /  15.9 °C 29.70in /  1005.6hPa East 0.9mph /  1.4km/h 3.0mph /  4.8km/h 81% 0.05in /  1.27mm meteobridge W/m2
18:22 66.7 °F /  19.3 °C 60.8 °F /  16 °C 29.71in /  1006hPa Calm   2.0mph /  3.2km/h 81% 0.05in /  1.27mm meteobridge W/m2
18:28 66.7 °F /  19.3 °C 60.4 °F /  15.8 °C 29.71in /  1006hPa Calm   2.0mph /  3.2km/h 80% 0.05in /  1.27mm meteobridge W/m2
18:34 66.9 °F /  19.4 °C 60.3 °F /  15.7 °C 29.71in /  1006hPa East 2.9mph /  4.7km/h 3.0mph /  4.8km/h 79% 0.02in /  0.51mm meteobridge W/m2
18:40 66.9 °F /  19.4 °C 59.5 °F /  15.3 °C 29.70in /  1005.6hPa East 0.9mph /  1.4km/h 2.0mph /  3.2km/h 77% 0.01in /  0.25mm meteobridge W/m2
18:46 67.3 °F /  19.6 °C 59.0 °F /  15 °C 29.71in /  1006hPa East 2.0mph /  3.2km/h 4.0mph /  6.4km/h 75% 0.01in /  0.25mm meteobridge W/m2
18:53 67.5 °F /  19.7 °C 58.8 °F /  14.9 °C 29.71in /  1006hPa Calm   1.0mph /  1.6km/h 74% 0.00in /  0mm meteobridge W/m2
18:59 67.3 °F /  19.6 °C 58.3 °F /  14.6 °C 29.72in /  1006.3hPa North 6.0mph /  9.7km/h 6.0mph /  9.7km/h 73% 0.00in /  0mm meteobridge W/m2
19:06 67.3 °F /  19.6 °C 58.3 °F /  14.6 °C 29.72in /  1006.3hPa North 6.0mph /  9.7km/h -999.0mph /  -1607.7km/h 73% 0.00in /  0mm meteobridge W/m2
19:12 67.3 °F /  19.6 °C 58.3 °F /  14.6 °C 29.72in /  1006.3hPa North -999.9mph /  -1609.1km/h -999.0mph /  -1607.7km/h 73% 0.00in /  0mm meteobridge W/m2
Regenstein, Windhoek, Namibia
Compliments of Weather Underground - 2.5 mb